Time;durP1;ratioP1;P1;durP2;ratioP2;P2;SDS_P1;SDS_P2;PMS_P1;PMS_P2;Temp;Humidity;BMP_temperature;BMP_pressure;BME280_temperature;BME280_humidity;BME280_pressure;Samples;Min_cycle;Max_cycle;Signal;HPM_P1;HPM_P2
2022/09/12 00:01:13;;;;;;;;;;;;;;;17.21;48.19;100161.88;5077113;28;1905;-63
2022/09/12 00:03:39;;;;;;;;;;;;;;;17.16;47.29;100156.41;5075214;28;1219;-64
2022/09/12 00:06:12;;;;;;;;;;;;;;;17.18;46.74;100154.19;5077387;28;1298;-64
2022/09/12 00:08:37;;;;;;;;;;;;;;;17.57;47.94;100148.50;5075027;28;1262;-64
2022/09/12 00:11:03;;;;;;;;;;;;;;;17.50;48.50;100156.28;5076663;28;1084;-63
2022/09/12 00:13:29;;;;;;;;;;;;;;;17.35;48.07;100153.69;5074028;28;1274;-65
2022/09/12 00:15:54;;;;;;;;;;;;;;;17.26;47.18;100151.63;5074460;28;2283;-65
2022/09/12 00:18:20;;;;;;;;;;;;;;;17.42;47.65;100155.00;5079391;28;1261;-65
2022/09/12 00:20:45;;;;;;;;;;;;;;;17.62;48.44;100155.84;5073852;28;1906;-65
2022/09/12 00:23:11;;;;;;;;;;;;;;;17.44;47.46;100158.25;5076678;28;1219;-63
2022/09/12 00:25:43;;;;;;;;;;;;;;;17.20;47.44;100158.28;5078909;28;1295;-64
2022/09/12 00:28:08;;;;;;;;;;;;;;;17.84;47.61;100166.25;5079409;28;1122;-64
2022/09/12 00:30:34;;;;;;;;;;;;;;;15.64;53.95;100170.78;5076881;28;1017;-63
2022/09/12 00:32:59;;;;;;;;;;;;;;;15.87;51.83;100169.31;5075134;28;961;-65
2022/09/12 00:35:25;;;;;;;;;;;;;;;17.89;50.36;100182.72;5073364;28;1262;-66
2022/09/12 00:37:50;;;;;;;;;;;;;;;17.24;50.34;100183.25;5076050;28;973;-66
2022/09/12 00:40:16;;;;;;;;;;;;;;;17.20;48.75;100179.47;5090894;28;1079;-67
2022/09/12 00:42:41;;;;;;;;;;;;;;;17.35;48.49;100179.28;5086069;28;1905;-66
2022/09/12 00:45:08;;;;;;;;;;;;;;;17.56;49.25;100181.78;5076780;28;2351;-67
2022/09/12 00:47:33;;;;;;;;;;;;;;;17.39;48.57;100193.22;5058951;28;1194;-67
2022/09/12 00:49:59;;;;;;;;;;;;;;;17.27;47.74;100202.72;5059042;28;1065;-68
2022/09/12 00:52:25;;;;;;;;;;;;;;;18.11;48.40;100212.38;5080625;28;1197;-67
2022/09/12 00:54:58;;;;;;;;;;;;;;;17.65;48.52;100223.97;5076702;28;1056;-66
2022/09/12 00:57:24;;;;;;;;;;;;;;;17.43;47.50;100230.00;5058712;28;1255;-64
2022/09/12 00:59:51;;;;;;;;;;;;;;;17.26;47.31;100239.56;5076748;28;1088;-64
2022/09/12 01:02:17;;;;;;;;;;;;;;;17.21;46.67;100236.06;5077054;28;1906;-65
2022/09/12 01:04:43;;;;;;;;;;;;;;;17.10;46.70;100233.38;5077122;28;1205;-63
2022/09/12 01:07:08;;;;;;;;;;;;;;;17.08;46.13;100237.53;5076386;28;1021;-63
2022/09/12 01:09:34;;;;;;;;;;;;;;;17.07;46.03;100236.72;5076697;28;1163;-64
2022/09/12 01:11:59;;;;;;;;;;;;;;;18.00;47.17;100221.09;5087522;28;984;-64
2022/09/12 01:14:25;;;;;;;;;;;;;;;17.32;47.99;100223.00;5080181;28;1041;-64
2022/09/12 01:16:50;;;;;;;;;;;;;;;17.27;47.19;100213.69;5076306;28;2512;-64
2022/09/12 01:19:19;;;;;;;;;;;;;;;17.21;46.44;100216.81;5076459;28;1008;-65
2022/09/12 01:21:53;;;;;;;;;;;;;;;17.17;46.04;100218.50;5076574;28;1973;-64
2022/09/12 01:24:48;;;;;;;;;;;;;;;18.27;47.34;100223.16;5072726;28;1120;-64
2022/09/12 01:27:13;;;;;;;;;;;;;;;17.45;48.02;100219.56;4989268;28;1288;-65
2022/09/12 01:29:41;;;;;;;;;;;;;;;17.32;47.54;100221.09;5074870;28;1164;-64
2022/09/12 01:32:13;;;;;;;;;;;;;;;17.29;46.76;100213.41;5076167;28;985;-64
2022/09/12 01:34:59;;;;;;;;;;;;;;;17.57;47.41;100205.38;5076139;28;1214;-65
2022/09/12 01:37:24;;;;;;;;;;;;;;;15.66;53.65;100206.94;5030651;28;1085;-64
2022/09/12 01:39:50;;;;;;;;;;;;;;;15.91;51.44;100207.94;5085648;28;1031;-64
2022/09/12 01:42:44;;;;;;;;;;;;;;;17.02;49.51;100216.72;5076107;28;1976;-64
2022/09/12 01:45:24;;;;;;;;;;;;;;;17.52;49.65;100209.03;5035486;28;2212;-65
2022/09/12 01:47:55;;;;;;;;;;;;;;;17.26;48.93;100216.75;5057789;28;1061;-65
2022/09/12 01:50:24;;;;;;;;;;;;;;;17.17;47.84;100210.25;5057730;28;1096;-64
2022/09/12 01:52:52;;;;;;;;;;;;;;;17.76;48.29;100214.47;5064657;28;1079;-64
2022/09/12 01:55:19;;;;;;;;;;;;;;;17.54;49.00;100205.97;5080235;28;1099;-64
2022/09/12 01:57:49;;;;;;;;;;;;;;;17.41;48.00;100208.31;5073334;28;1234;-64
2022/09/12 02:00:14;;;;;;;;;;;;;;;17.32;47.22;100195.50;5063724;28;1064;-65
2022/09/12 02:02:42;;;;;;;;;;;;;;;17.10;47.04;100207.84;5084524;28;1964;-65
2022/09/12 02:05:17;;;;;;;;;;;;;;;17.06;46.66;100196.63;5082840;28;1040;-65
2022/09/12 02:08:03;;;;;;;;;;;;;;;17.08;46.06;100188.91;5062111;28;1017;-66
2022/09/12 02:10:29;;;;;;;;;;;;;;;17.72;48.17;100194.19;5080233;28;1186;-66
2022/09/12 02:13:11;;;;;;;;;;;;;;;17.27;48.00;100202.72;5061779;28;1006;-65
2022/09/12 02:15:37;;;;;;;;;;;;;;;17.22;47.13;100196.44;5064569;28;2392;-66
2022/09/12 02:18:04;;;;;;;;;;;;;;;17.18;46.58;100201.72;5079785;28;985;-65
2022/09/12 02:20:29;;;;;;;;;;;;;;;17.14;46.23;100205.34;5062131;28;1162;-65
2022/09/12 02:22:55;;;;;;;;;;;;;;;17.03;46.21;100205.44;5079423;28;1929;-66
2022/09/12 02:25:20;;;;;;;;;;;;;;;17.78;47.31;100205.94;5079295;28;1036;-65
2022/09/12 02:27:52;;;;;;;;;;;;;;;17.33;47.57;100208.16;5067037;28;1144;-65
2022/09/12 02:30:18;;;;;;;;;;;;;;;17.23;46.66;100217.34;5079331;28;1029;-66
2022/09/12 02:32:52;;;;;;;;;;;;;;;17.07;46.64;100200.22;5085194;28;950;-65
2022/09/12 02:35:24;;;;;;;;;;;;;;;17.10;45.88;100202.38;5076699;28;1017;-65
2022/09/12 02:38:01;;;;;;;;;;;;;;;17.04;45.80;100200.75;5061116;28;1287;-65
2022/09/12 02:40:27;;;;;;;;;;;;;;;16.96;45.75;100201.38;5081731;28;906;-64
2022/09/12 02:42:53;;;;;;;;;;;;;;;17.58;46.69;100193.28;5061270;28;1897;-65
2022/09/12 02:45:19;;;;;;;;;;;;;;;17.55;47.48;100193.88;5080095;28;2390;-64
2022/09/12 02:47:46;;;;;;;;;;;;;;;17.34;47.19;100193.31;5076614;28;1078;-64
2022/09/12 02:50:12;;;;;;;;;;;;;;;17.36;47.37;100208.41;5061596;28;1277;-65
2022/09/12 02:52:37;;;;;;;;;;;;;;;17.63;47.69;100217.97;5084788;28;837;-65
2022/09/12 02:55:06;;;;;;;;;;;;;;;17.24;47.62;100221.72;5092328;28;968;-64
2022/09/12 02:57:31;;;;;;;;;;;;;;;17.23;46.97;100218.13;5064976;28;1218;-64
2022/09/12 02:59:59;;;;;;;;;;;;;;;17.23;46.23;100220.06;5082530;28;1174;-64
2022/09/12 03:02:25;;;;;;;;;;;;;;;17.16;45.85;100211.38;5078746;28;1906;-65
2022/09/12 03:04:56;;;;;;;;;;;;;;;17.94;47.37;100209.34;5091121;28;1142;-65
2022/09/12 03:07:51;;;;;;;;;;;;;;;17.39;47.38;100199.56;5079215;28;1063;-64
2022/09/12 03:10:24;;;;;;;;;;;;;;;18.39;47.70;100198.75;4989772;28;1263;-64
2022/09/12 03:12:49;;;;;;;;;;;;;;;14.55;57.52;100219.47;5060918;28;1178;-64
2022/09/12 03:15:31;;;;;;;;;;;;;;;18.35;50.80;100216.97;5083134;28;1959;-65
2022/09/12 03:18:06;;;;;;;;;;;;;;;15.87;57.33;100206.88;5055058;28;1108;-65
2022/09/12 03:20:43;;;;;;;;;;;;;;;16.33;53.52;100206.59;5078285;28;981;-64
2022/09/12 03:23:11;;;;;;;;;;;;;;;16.97;50.04;100205.78;5060084;28;1033;-64
2022/09/12 03:25:40;;;;;;;;;;;;;;;17.54;51.08;100194.97;5078281;28;1068;-61
2022/09/12 03:28:10;;;;;;;;;;;;;;;17.26;49.65;100184.59;5055401;28;1045;-65
2022/09/12 03:30:39;;;;;;;;;;;;;;;17.16;48.78;100178.41;5068940;28;1031;-65
2022/09/12 03:33:05;;;;;;;;;;;;;;;17.14;47.65;100178.69;5058075;28;1124;-64
2022/09/12 03:35:30;;;;;;;;;;;;;;;17.23;48.05;100173.38;5078096;28;981;-63
2022/09/12 03:37:56;;;;;;;;;;;;;;;17.76;49.24;100180.69;5077913;28;1099;-66
2022/09/12 03:40:21;;;;;;;;;;;;;;;17.35;48.60;100178.44;5064699;28;914;-66
2022/09/12 03:42:46;;;;;;;;;;;;;;;17.25;47.90;100171.13;5077875;28;1913;-66
2022/09/12 03:45:12;;;;;;;;;;;;;;;18.43;49.04;100163.19;5078126;28;2417;-67
2022/09/12 03:47:37;;;;;;;;;;;;;;;14.62;57.66;100159.03;5077917;28;1052;-63
2022/09/12 03:50:03;;;;;;;;;;;;;;;17.59;52.09;100154.50;5058740;28;1438;-60
2022/09/12 03:52:28;;;;;;;;;;;;;;;16.06;56.60;100158.50;5077388;28;909;-60
2022/09/12 03:54:54;;;;;;;;;;;;;;;15.77;54.77;100155.63;5078437;28;1021;-59
2022/09/12 03:57:19;;;;;;;;;;;;;;;16.83;50.77;100164.41;5077875;28;1020;-65
2022/09/12 03:59:45;;;;;;;;;;;;;;;17.33;51.47;100162.25;5077876;28;1108;-61
2022/09/12 04:02:13;;;;;;;;;;;;;;;17.37;51.00;100178.97;5077489;28;1918;-61
2022/09/12 04:04:42;;;;;;;;;;;;;;;17.13;50.03;100179.00;5074655;28;1262;-62
2022/09/12 04:07:08;;;;;;;;;;;;;;;17.17;48.77;100177.31;5077953;28;1131;-62
2022/09/12 04:09:33;;;;;;;;;;;;;;;17.04;48.28;100187.03;5078382;28;1245;-62
2022/09/12 04:11:58;;;;;;;;;;;;;;;16.99;47.67;100190.66;5077447;28;1222;-62
2022/09/12 04:14:24;;;;;;;;;;;;;;;16.93;47.19;100195.38;5079606;28;981;-62
2022/09/12 04:16:49;;;;;;;;;;;;;;;16.96;46.97;100196.72;5086579;28;2125;-59
2022/09/12 04:19:15;;;;;;;;;;;;;;;16.89;46.63;100202.56;5073626;28;2335;-56
2022/09/12 04:21:40;;;;;;;;;;;;;;;16.90;46.36;100198.72;5088623;28;1913;-58
2022/09/12 04:24:06;;;;;;;;;;;;;;;17.36;47.46;100182.84;5077774;28;851;-60
2022/09/12 04:26:31;;;;;;;;;;;;;;;17.21;48.71;100192.09;5078011;28;981;-58
2022/09/12 04:28:56;;;;;;;;;;;;;;;17.01;47.89;100199.44;5071808;28;899;-59
2022/09/12 04:31:22;;;;;;;;;;;;;;;17.05;47.15;100197.72;5077231;28;1108;-59
2022/09/12 04:33:58;;;;;;;;;;;;;;;17.23;47.48;100192.59;5075341;28;1127;-58
2022/09/12 04:36:24;;;;;;;;;;;;;;;17.37;48.36;100203.72;5081618;28;1071;-59
2022/09/12 04:38:49;;;;;;;;;;;;;;;17.20;47.84;100206.94;5077821;28;1155;-60
2022/09/12 04:41:16;;;;;;;;;;;;;;;17.05;47.04;100214.19;5079587;28;1910;-60
2022/09/12 04:43:42;;;;;;;;;;;;;;;17.00;46.84;100222.50;5076980;28;1020;-58
2022/09/12 04:46:10;;;;;;;;;;;;;;;16.90;46.50;100200.63;5077277;28;1127;-60
2022/09/12 04:48:36;;;;;;;;;;;;;;;16.93;46.10;100194.56;5077186;28;970;-58
2022/09/12 04:51:06;;;;;;;;;;;;;;;17.42;47.08;100190.72;5076142;28;1075;-59
2022/09/12 04:53:31;;;;;;;;;;;;;;;17.34;48.02;100185.88;5070729;28;944;-58
2022/09/12 04:56:00;;;;;;;;;;;;;;;17.15;47.67;100215.22;5077099;28;1084;-58
2022/09/12 04:58:26;;;;;;;;;;;;;;;16.99;47.09;100226.38;5082953;28;1346;-59
2022/09/12 05:00:51;;;;;;;;;;;;;;;17.01;46.78;100223.31;5070970;28;1906;-58
2022/09/12 05:03:18;;;;;;;;;;;;;;;16.89;46.50;100216.28;5076658;28;1131;-59
2022/09/12 05:05:43;;;;;;;;;;;;;;;17.02;46.08;100216.72;5071385;28;926;-61
2022/09/12 05:08:08;;;;;;;;;;;;;;;17.78;47.01;100217.78;5075967;28;958;-60
2022/09/12 05:10:34;;;;;;;;;;;;;;;17.28;47.81;100225.53;5073048;28;1039;-61
2022/09/12 05:12:59;;;;;;;;;;;;;;;17.10;47.19;100227.09;5076715;28;973;-65
2022/09/12 05:15:25;;;;;;;;;;;;;;;17.02;46.65;100230.47;5068510;28;1416;-61
2022/09/12 05:17:50;;;;;;;;;;;;;;;16.92;46.56;100225.88;5076517;28;945;-62
2022/09/12 05:20:16;;;;;;;;;;;;;;;16.87;46.24;100206.66;5083893;28;1203;-60
2022/09/12 05:22:41;;;;;;;;;;;;;;;16.86;46.10;100210.53;5082046;28;1918;-62
2022/09/12 05:25:07;;;;;;;;;;;;;;;16.77;46.13;100219.41;5080859;28;1012;-64
2022/09/12 05:27:33;;;;;;;;;;;;;;;17.74;46.96;100205.72;5076753;28;1040;-64
2022/09/12 05:29:58;;;;;;;;;;;;;;;17.14;47.63;100213.56;5080535;28;1019;-64
2022/09/12 05:32:24;;;;;;;;;;;;;;;18.01;48.10;100214.47;5077011;28;1005;-63
2022/09/12 05:34:49;;;;;;;;;;;;;;;15.83;55.05;100214.84;5076582;28;1183;-62
2022/09/12 05:37:15;;;;;;;;;;;;;;;15.98;53.03;100213.94;5077103;28;981;-62
2022/09/12 05:39:40;;;;;;;;;;;;;;;16.71;49.19;100227.97;5077951;28;1599;-59
2022/09/12 05:42:06;;;;;;;;;;;;;;;18.16;49.37;100225.25;5076077;28;1909;-62
2022/09/12 05:44:32;;;;;;;;;;;;;;;17.76;50.55;100216.44;5089208;28;1143;-58
2022/09/12 05:46:57;;;;;;;;;;;;;;;17.48;51.42;100232.72;5066313;28;1709;-64
2022/09/12 05:49:23;;;;;;;;;;;;;;;17.35;51.98;100225.16;5077448;28;984;-65
2022/09/12 05:51:50;;;;;;;;;;;;;;;17.22;52.22;100226.69;5072193;28;1215;-63
2022/09/12 05:54:16;;;;;;;;;;;;;;;17.14;52.87;100230.06;5080007;28;1004;-60
2022/09/12 05:56:42;;;;;;;;;;;;;;;17.03;52.98;100221.94;5074153;28;2089;-62
2022/09/12 05:59:12;;;;;;;;;;;;;;;17.00;53.26;100222.50;5081570;28;2648;-61
2022/09/12 06:01:37;;;;;;;;;;;;;;;16.98;53.15;100221.97;5076023;28;1984;-61
2022/09/12 06:04:03;;;;;;;;;;;;;;;16.86;53.64;100219.59;5078158;28;1883;-62
2022/09/12 06:06:29;;;;;;;;;;;;;;;16.81;53.91;100227.06;5081324;28;1941;-63
2022/09/12 06:08:55;;;;;;;;;;;;;;;16.75;53.90;100221.59;5080189;28;1832;-64
2022/09/12 06:11:27;;;;;;;;;;;;;;;16.76;53.97;100220.50;5083358;28;1879;-58
2022/09/12 06:13:53;;;;;;;;;;;;;;;16.69;54.04;100213.69;5081575;28;1048;-63
2022/09/12 06:16:19;;;;;;;;;;;;;;;16.62;54.57;100222.28;5057498;28;1564;-64
2022/09/12 06:18:48;;;;;;;;;;;;;;;16.61;54.68;100220.63;5082288;28;1008;-62
2022/09/12 06:21:14;;;;;;;;;;;;;;;16.58;54.81;100218.47;5075767;28;1965;-64
2022/09/12 06:23:39;;;;;;;;;;;;;;;16.55;54.79;100219.03;5075878;28;973;-62
2022/09/12 06:26:05;;;;;;;;;;;;;;;16.49;54.91;100211.94;5075644;28;973;-64
2022/09/12 06:28:31;;;;;;;;;;;;;;;16.46;55.14;100218.81;5075967;28;1091;-64
2022/09/12 06:31:03;;;;;;;;;;;;;;;16.45;55.16;100224.59;5078321;28;1040;-60
2022/09/12 06:33:30;;;;;;;;;;;;;;;16.40;55.31;100217.25;5075625;28;1017;-62
2022/09/12 06:36:00;;;;;;;;;;;;;;;16.37;55.34;100218.63;5075115;28;1060;-62
2022/09/12 06:38:26;;;;;;;;;;;;;;;16.37;55.35;100207.66;5076443;28;1091;-63
2022/09/12 06:40:51;;;;;;;;;;;;;;;16.35;55.38;100214.53;5088270;28;1913;-61
2022/09/12 06:43:18;;;;;;;;;;;;;;;16.32;55.47;100217.84;5093999;28;1135;-61
2022/09/12 06:45:49;;;;;;;;;;;;;;;16.28;55.49;100216.78;5079086;28;1029;-62
2022/09/12 06:48:15;;;;;;;;;;;;;;;16.23;55.36;100215.69;5079281;28;954;-62
2022/09/12 06:50:40;;;;;;;;;;;;;;;16.18;55.62;100214.91;5079273;28;1005;-58
2022/09/12 06:53:06;;;;;;;;;;;;;;;16.20;55.67;100212.69;5082071;28;969;-64
2022/09/12 06:55:32;;;;;;;;;;;;;;;16.17;55.53;100214.09;5077698;28;997;-62
2022/09/12 06:57:58;;;;;;;;;;;;;;;16.16;55.81;100217.09;5076408;28;1215;-59
2022/09/12 07:00:23;;;;;;;;;;;;;;;16.91;54.90;100214.09;5078770;28;1009;-63
2022/09/12 07:02:52;;;;;;;;;;;;;;;17.25;54.64;100213.19;5074568;28;2002;-63
2022/09/12 07:05:17;;;;;;;;;;;;;;;16.71;55.86;100217.00;5078544;28;1156;-63
2022/09/12 07:07:43;;;;;;;;;;;;;;;16.56;56.16;100209.69;5078537;28;1033;-59
2022/09/12 07:10:11;;;;;;;;;;;;;;;16.48;56.38;100213.03;5069443;28;1081;-58
2022/09/12 07:12:36;;;;;;;;;;;;;;;16.48;55.92;100207.56;5073439;28;1144;-60
2022/09/12 07:15:02;;;;;;;;;;;;;;;16.39;56.11;100208.16;5094658;28;1214;-59
2022/09/12 07:17:27;;;;;;;;;;;;;;;16.38;55.89;100217.53;5082505;28;981;-61
2022/09/12 07:19:53;;;;;;;;;;;;;;;16.29;56.36;100215.69;5078503;28;1162;-61
2022/09/12 07:22:18;;;;;;;;;;;;;;;16.31;55.97;100203.28;5086895;28;1909;-59
2022/09/12 07:24:44;;;;;;;;;;;;;;;16.27;55.86;100202.25;5078239;28;1162;-59
2022/09/12 07:27:10;;;;;;;;;;;;;;;16.22;56.18;100210.50;5086297;28;973;-59
2022/09/12 07:29:35;;;;;;;;;;;;;;;16.20;55.95;100210.78;5084275;28;1182;-61
2022/09/12 07:32:01;;;;;;;;;;;;;;;16.20;56.11;100215.44;5078296;28;1012;-63
2022/09/12 07:34:27;;;;;;;;;;;;;;;16.12;56.01;100210.56;5078523;28;1095;-57
2022/09/12 07:36:52;;;;;;;;;;;;;;;16.10;56.22;100215.53;5060249;28;998;-64
2022/09/12 07:39:17;;;;;;;;;;;;;;;16.47;56.13;100216.91;5091608;28;964;-63
2022/09/12 07:41:43;;;;;;;;;;;;;;;17.67;54.67;100212.69;5078485;28;2357;-62
2022/09/12 07:44:08;;;;;;;;;;;;;;;16.91;56.41;100213.25;5086179;28;1000;-62
2022/09/12 07:46:34;;;;;;;;;;;;;;;16.67;56.81;100208.50;5077988;28;1060;-60
2022/09/12 07:48:59;;;;;;;;;;;;;;;16.56;56.74;100209.69;5077936;28;1071;-60
2022/09/12 07:51:25;;;;;;;;;;;;;;;16.51;56.58;100212.47;5076589;28;1080;-60
2022/09/12 07:53:51;;;;;;;;;;;;;;;16.47;56.47;100208.69;5082537;28;1037;-60
2022/09/12 07:56:16;;;;;;;;;;;;;;;16.38;56.80;100209.28;5079873;28;972;-63
2022/09/12 07:58:42;;;;;;;;;;;;;;;16.37;56.48;100206.84;5059923;28;1132;-63
2022/09/12 08:01:17;;;;;;;;;;;;;;;16.34;56.57;100201.91;5077750;28;1897;-61
2022/09/12 08:03:43;;;;;;;;;;;;;;;16.31;56.45;100206.03;5077958;28;1032;-62
2022/09/12 08:06:13;;;;;;;;;;;;;;;16.28;56.36;100198.38;5081246;28;997;-64
2022/09/12 08:08:38;;;;;;;;;;;;;;;17.23;55.84;100200.84;5077953;28;913;-65
2022/09/12 08:11:05;;;;;;;;;;;;;;;17.07;56.41;100212.00;5085789;28;2234;-64
2022/09/12 08:13:30;;;;;;;;;;;;;;;16.77;56.94;100202.94;5076432;28;1444;-64
2022/09/12 08:15:59;;;;;;;;;;;;;;;16.64;57.13;100203.59;5083887;28;1354;-64
2022/09/12 08:18:25;;;;;;;;;;;;;;;16.57;56.92;100216.81;5075252;28;1588;-64
2022/09/12 08:20:57;;;;;;;;;;;;;;;16.48;56.96;100213.03;5069533;28;1979;-61
2022/09/12 08:23:23;;;;;;;;;;;;;;;16.49;56.82;100203.72;5081770;28;1047;-62
2022/09/12 08:25:49;;;;;;;;;;;;;;;16.41;56.67;100200.47;5080332;28;1081;-61
2022/09/12 08:28:15;;;;;;;;;;;;;;;16.42;56.51;100199.38;5075863;28;993;-62
2022/09/12 08:30:40;;;;;;;;;;;;;;;16.35;56.50;100198.06;5076169;28;899;-60
2022/09/12 08:33:06;;;;;;;;;;;;;;;16.37;56.54;100196.69;5077480;28;985;-63
2022/09/12 08:35:32;;;;;;;;;;;;;;;16.37;56.50;100190.38;5075455;28;965;-59
2022/09/12 08:37:57;;;;;;;;;;;;;;;17.55;55.51;100185.63;5077215;28;1012;-62
2022/09/12 08:40:23;;;;;;;;;;;;;;;16.91;56.85;100188.53;5076782;28;2407;-63
2022/09/12 08:42:53;;;;;;;;;;;;;;;16.70;57.12;100183.22;5073826;28;2337;-60
2022/09/12 08:45:25;;;;;;;;;;;;;;;16.59;57.20;100182.50;5056737;28;1242;-62
2022/09/12 08:47:50;;;;;;;;;;;;;;;16.51;56.86;100185.03;5052183;28;1278;-62
2022/09/12 08:50:17;;;;;;;;;;;;;;;16.49;56.73;100185.31;5074819;28;1266;-63
2022/09/12 08:52:52;;;;;;;;;;;;;;;16.48;56.77;100186.44;5077521;28;1297;-63
2022/09/12 08:55:47;;;;;;;;;;;;;;;16.44;56.66;100174.41;5076624;28;849;-64
2022/09/12 08:58:13;;;;;;;;;;;;;;;16.38;56.77;100179.13;5035752;28;1210;-63
2022/09/12 09:00:41;;;;;;;;;;;;;;;16.34;56.48;100178.03;5057951;28;1609;-63
2022/09/12 09:03:10;;;;;;;;;;;;;;;16.32;56.51;100176.69;5046531;28;1988;-64
2022/09/12 09:05:46;;;;;;;;;;;;;;;16.28;56.38;100170.94;5060883;28;1163;-63
2022/09/12 09:08:23;;;;;;;;;;;;;;;16.43;56.73;100172.75;5047828;28;1104;-63
2022/09/12 09:11:15;;;;;;;;;;;;;;;17.56;55.51;100162.53;5056099;28;1911;-63
2022/09/12 09:16:34;;;;;;;;;;;;;;;16.67;57.36;100153.59;5053810;28;1048;-64
2022/09/12 09:19:14;;;;;;;;;;;;;;;16.64;56.91;100151.44;5046251;28;1053;-58
2022/09/12 09:21:41;;;;;;;;;;;;;;;16.54;56.95;100148.78;5038782;28;1910;-62
2022/09/12 09:24:09;;;;;;;;;;;;;;;16.53;56.88;100145.22;5055785;28;989;-63
2022/09/12 09:26:34;;;;;;;;;;;;;;;16.50;56.87;100153.22;5038697;28;1026;-63
2022/09/12 09:29:17;;;;;;;;;;;;;;;16.45;56.80;100134.03;5056671;28;1096;-64
2022/09/12 09:31:42;;;;;;;;;;;;;;;16.35;56.85;100138.50;5056033;28;1453;-64
2022/09/12 09:34:21;;;;;;;;;;;;;;;16.36;56.71;100131.13;5043548;28;1033;-63
2022/09/12 09:36:46;;;;;;;;;;;;;;;16.30;56.83;100124.84;5045022;28;1159;-64
2022/09/12 09:39:32;;;;;;;;;;;;;;;16.33;56.66;100132.50;5044714;28;1404;-63
2022/09/12 09:42:09;;;;;;;;;;;;;;;16.27;56.50;100130.91;5058073;28;2533;-63
2022/09/12 09:44:34;;;;;;;;;;;;;;;16.28;56.53;100140.75;5040054;28;1194;-63
2022/09/12 09:47:00;;;;;;;;;;;;;;;16.48;56.60;100128.81;5059923;28;1004;-62
2022/09/12 09:49:26;;;;;;;;;;;;;;;17.56;55.71;100132.28;5054912;28;993;-63
2022/09/12 09:51:51;;;;;;;;;;;;;;;16.94;57.13;100138.53;5056196;28;973;-63
2022/09/12 09:54:24;;;;;;;;;;;;;;;16.75;57.31;100136.50;5035964;28;1188;-62
2022/09/12 09:56:49;;;;;;;;;;;;;;;16.58;57.51;100125.16;5056454;28;1142;-63
2022/09/12 09:59:18;;;;;;;;;;;;;;;16.60;57.21;100123.72;5080433;28;1048;-63
2022/09/12 10:01:52;;;;;;;;;;;;;;;16.58;56.80;100119.66;5073962;28;2031;-63
2022/09/12 10:04:19;;;;;;;;;;;;;;;16.55;56.81;100126.53;5052768;28;1112;-62
2022/09/12 10:06:44;;;;;;;;;;;;;;;16.46;56.80;100127.47;5062489;28;1160;-62
2022/09/12 10:09:13;;;;;;;;;;;;;;;16.45;56.82;100121.13;5066428;28;1072;-62
2022/09/12 10:11:39;;;;;;;;;;;;;;;16.41;56.65;100126.41;5075423;28;1823;-63
2022/09/12 10:14:04;;;;;;;;;;;;;;;16.38;56.55;100123.41;5077726;28;1084;-62
2022/09/12 10:16:30;;;;;;;;;;;;;;;16.39;56.55;100123.09;5080065;28;965;-63
2022/09/12 10:19:00;;;;;;;;;;;;;;;16.32;56.76;100117.13;5083426;28;973;-62
2022/09/12 10:21:29;;;;;;;;;;;;;;;16.32;56.57;100119.88;5060168;28;1942;-62
2022/09/12 10:24:05;;;;;;;;;;;;;;;16.31;56.48;100125.66;5090605;28;1076;-63
2022/09/12 10:26:35;;;;;;;;;;;;;;;16.29;56.52;100125.16;5061242;28;1054;-63
2022/09/12 10:29:21;;;;;;;;;;;;;;;16.56;56.63;100127.34;5071399;28;1408;-62
2022/09/12 10:31:48;;;;;;;;;;;;;;;17.67;55.57;100125.53;5083104;28;811;-63
2022/09/12 10:34:20;;;;;;;;;;;;;;;17.00;57.25;100109.06;5072756;28;1384;-62
2022/09/12 10:36:45;;;;;;;;;;;;;;;16.80;57.35;100115.59;5070954;28;1267;-63
2022/09/12 10:39:13;;;;;;;;;;;;;;;16.74;57.38;100112.06;5063503;28;1289;-63
2022/09/12 10:41:39;;;;;;;;;;;;;;;16.62;57.33;100109.75;5062693;28;1977;-63
2022/09/12 10:44:08;;;;;;;;;;;;;;;16.57;57.14;100126.25;5073154;28;1195;-63
2022/09/12 10:46:34;;;;;;;;;;;;;;;16.55;56.92;100120.22;5073610;28;1219;-63
2022/09/12 10:49:23;;;;;;;;;;;;;;;16.50;56.90;100114.78;5068504;28;1140;-61
2022/09/12 10:51:48;;;;;;;;;;;;;;;16.44;56.91;100119.53;5064329;28;1277;-62
2022/09/12 10:54:15;;;;;;;;;;;;;;;16.47;56.53;100123.63;5077638;28;973;-62
2022/09/12 10:56:44;;;;;;;;;;;;;;;16.45;56.66;100128.56;5069053;28;992;-62
2022/09/12 10:59:15;;;;;;;;;;;;;;;16.42;56.81;100121.72;5070126;28;1017;-63
2022/09/12 11:01:59;;;;;;;;;;;;;;;16.38;56.62;100126.16;5078709;28;1969;-62
2022/09/12 11:04:30;;;;;;;;;;;;;;;16.35;56.63;100122.03;5079336;28;1547;-62
2022/09/12 11:07:05;;;;;;;;;;;;;;;16.34;56.40;100120.44;5055205;28;1025;-62
2022/09/12 11:09:34;;;;;;;;;;;;;;;16.37;56.42;100108.06;5073550;28;1005;-62
2022/09/12 11:12:02;;;;;;;;;;;;;;;16.29;56.35;100098.50;5060872;28;1836;-62
2022/09/12 11:14:40;;;;;;;;;;;;;;;16.58;56.59;100116.91;5062606;28;1037;-62
2022/09/12 11:17:14;;;;;;;;;;;;;;;17.54;55.95;100102.31;5078665;28;1168;-62
2022/09/12 11:19:46;;;;;;;;;;;;;;;16.97;57.23;100110.50;5081939;28;1021;-63
2022/09/12 11:22:14;;;;;;;;;;;;;;;16.79;57.39;100116.69;5070144;28;1969;-63
2022/09/12 11:24:43;;;;;;;;;;;;;;;16.72;57.39;100120.59;5077096;28;1005;-62
2022/09/12 11:27:32;;;;;;;;;;;;;;;16.71;57.34;100118.16;5072867;28;1044;-61
2022/09/12 11:30:00;;;;;;;;;;;;;;;16.62;57.21;100117.13;5055687;28;1061;-65
2022/09/12 11:32:28;;;;;;;;;;;;;;;16.61;57.14;100113.59;5087979;28;1164;-65
2022/09/12 11:35:29;;;;;;;;;;;;;;;16.55;57.31;100117.47;5073775;28;1036;-63
2022/09/12 11:37:58;;;;;;;;;;;;;;;16.52;56.91;100109.81;4977263;28;1388;-60
2022/09/12 11:40:42;;;;;;;;;;;;;;;16.47;56.91;100104.41;5062052;28;1991;-61
2022/09/12 11:43:28;;;;;;;;;;;;;;;16.49;56.84;100111.22;5076255;28;1922;-60
2022/09/12 11:45:54;;;;;;;;;;;;;;;16.44;56.82;100103.06;5058156;28;1064;-59
2022/09/12 11:48:30;;;;;;;;;;;;;;;16.41;56.65;100101.69;5058269;28;950;-60
2022/09/12 11:50:56;;;;;;;;;;;;;;;16.36;56.76;100096.25;5077908;28;1052;-64
2022/09/12 11:53:25;;;;;;;;;;;;;;;16.34;56.57;100097.63;5060336;28;1148;-59
2022/09/12 11:56:00;;;;;;;;;;;;;;;16.33;56.54;100102.31;5055291;28;1365;-62
2022/09/12 11:58:26;;;;;;;;;;;;;;;16.32;56.83;100102.63;5072260;28;1151;-66
2022/09/12 12:00:52;;;;;;;;;;;;;;;17.62;56.16;100098.09;5071381;28;1420;-64
2022/09/12 12:03:21;;;;;;;;;;;;;;;17.14;57.22;100093.53;5056570;28;1976;-60
2022/09/12 12:05:54;;;;;;;;;;;;;;;16.84;57.59;100103.72;5077190;28;1096;-59
2022/09/12 12:08:20;;;;;;;;;;;;;;;16.75;57.51;100103.53;5071986;28;1199;-58
2022/09/12 12:10:48;;;;;;;;;;;;;;;16.69;57.08;100110.22;5077077;28;2182;-60
2022/09/12 12:13:14;;;;;;;;;;;;;;;16.64;56.96;100107.50;5077024;28;1215;-63
2022/09/12 12:15:39;;;;;;;;;;;;;;;16.58;56.93;100104.00;5077291;28;1174;-66
2022/09/12 12:18:14;;;;;;;;;;;;;;;16.54;57.01;100093.91;5076911;28;1281;-64
2022/09/12 12:20:39;;;;;;;;;;;;;;;16.49;57.15;100093.94;5077061;28;1321;-60
2022/09/12 12:23:05;;;;;;;;;;;;;;;16.49;56.84;100088.47;5065429;28;1867;-63
2022/09/12 12:25:37;;;;;;;;;;;;;;;16.45;56.96;100084.66;5055751;28;1224;-65
2022/09/12 12:28:05;;;;;;;;;;;;;;;16.46;56.98;100097.28;5072062;28;1056;-61
2022/09/12 12:30:30;;;;;;;;;;;;;;;16.39;56.79;100090.19;5059621;28;1167;-61
2022/09/12 12:32:59;;;;;;;;;;;;;;;16.40;56.73;100094.56;5081860;28;965;-59
2022/09/12 12:35:47;;;;;;;;;;;;;;;16.38;56.63;100099.53;5077473;28;1182;-62
2022/09/12 12:38:25;;;;;;;;;;;;;;;17.90;54.29;100081.75;5066435;28;2167;-60
2022/09/12 12:40:50;;;;;;;;;;;;;;;17.69;55.68;100097.75;5072191;28;1821;-62
2022/09/12 12:43:30;;;;;;;;;;;;;;;17.33;54.27;100079.81;5085050;28;2021;-63
2022/09/12 12:46:03;;;;;;;;;;;;;;;17.09;52.89;100088.91;5080647;28;1851;-58
2022/09/12 12:48:29;;;;;;;;;;;;;;;16.98;51.68;100083.84;5079774;28;1072;-63
2022/09/12 12:51:13;;;;;;;;;;;;;;;17.15;52.57;100094.34;5087926;28;1020;-65
2022/09/12 12:53:39;;;;;;;;;;;;;;;17.24;52.96;100096.13;5087479;28;1245;-61
2022/09/12 12:56:04;;;;;;;;;;;;;;;17.08;51.74;100092.78;5065835;28;1134;-60
2022/09/12 12:58:41;;;;;;;;;;;;;;;16.98;50.59;100101.13;5077722;28;1214;-64